sensor_id;sensor_type;location;lat;lon;timestamp;temperature;humidity
2158;DHT22;41972;48.774;9.282;2022-07-29T00:00:28;18.10;99.90
2158;DHT22;41972;48.774;9.282;2022-07-29T00:02:54;18.20;99.90
2158;DHT22;41972;48.774;9.282;2022-07-29T00:05:20;18.20;99.90
2158;DHT22;41972;48.774;9.282;2022-07-29T00:07:45;18.30;99.90
2158;DHT22;41972;48.774;9.282;2022-07-29T00:10:11;18.30;99.90
2158;DHT22;41972;48.774;9.282;2022-07-29T00:12:36;18.20;99.90
2158;DHT22;41972;48.774;9.282;2022-07-29T00:15:03;18.30;99.90
2158;DHT22;41972;48.774;9.282;2022-07-29T00:17:29;18.10;99.90
2158;DHT22;41972;48.774;9.282;2022-07-29T00:19:54;17.90;99.90
2158;DHT22;41972;48.774;9.282;2022-07-29T00:22:20;17.80;99.90
2158;DHT22;41972;48.774;9.282;2022-07-29T00:24:47;17.80;99.90
2158;DHT22;41972;48.774;9.282;2022-07-29T00:27:13;17.70;99.90
2158;DHT22;41972;48.774;9.282;2022-07-29T00:29:39;17.70;99.90
2158;DHT22;41972;48.774;9.282;2022-07-29T00:32:06;17.90;99.90
2158;DHT22;41972;48.774;9.282;2022-07-29T00:34:32;17.80;99.90
2158;DHT22;41972;48.774;9.282;2022-07-29T00:37:16;18.00;99.90
2158;DHT22;41972;48.774;9.282;2022-07-29T00:39:42;17.90;99.90
2158;DHT22;41972;48.774;9.282;2022-07-29T00:42:07;17.80;99.90
2158;DHT22;41972;48.774;9.282;2022-07-29T00:44:40;17.70;99.90
2158;DHT22;41972;48.774;9.282;2022-07-29T00:47:07;17.60;99.90
2158;DHT22;41972;48.774;9.282;2022-07-29T00:49:34;17.50;99.90
2158;DHT22;41972;48.774;9.282;2022-07-29T00:52:04;17.50;99.90
2158;DHT22;41972;48.774;9.282;2022-07-29T00:54:30;17.40;99.90
2158;DHT22;41972;48.774;9.282;2022-07-29T00:56:59;17.40;99.90
2158;DHT22;41972;48.774;9.282;2022-07-29T00:59:26;17.30;99.90
2158;DHT22;41972;48.774;9.282;2022-07-29T01:01:52;17.20;99.90
2158;DHT22;41972;48.774;9.282;2022-07-29T01:04:19;17.10;99.90
2158;DHT22;41972;48.774;9.282;2022-07-29T01:06:45;17.00;99.90
2158;DHT22;41972;48.774;9.282;2022-07-29T01:09:12;17.00;99.90
2158;DHT22;41972;48.774;9.282;2022-07-29T01:11:38;16.90;99.90
2158;DHT22;41972;48.774;9.282;2022-07-29T01:14:05;16.90;99.90
2158;DHT22;41972;48.774;9.282;2022-07-29T01:16:35;17.00;99.90
2158;DHT22;41972;48.774;9.282;2022-07-29T01:19:23;17.00;99.90
2158;DHT22;41972;48.774;9.282;2022-07-29T01:21:57;17.10;99.90
2158;DHT22;41972;48.774;9.282;2022-07-29T01:25:01;17.00;99.90
2158;DHT22;41972;48.774;9.282;2022-07-29T01:30:32;16.90;99.90
2158;DHT22;41972;48.774;9.282;2022-07-29T01:33:03;16.90;99.90
2158;DHT22;41972;48.774;9.282;2022-07-29T01:35:36;16.90;99.90
2158;DHT22;41972;48.774;9.282;2022-07-29T01:38:13;17.10;99.90
2158;DHT22;41972;48.774;9.282;2022-07-29T01:40:45;17.00;99.90
2158;DHT22;41972;48.774;9.282;2022-07-29T01:43:16;17.00;99.90
2158;DHT22;41972;48.774;9.282;2022-07-29T01:45:47;17.00;99.90
2158;DHT22;41972;48.774;9.282;2022-07-29T01:48:27;16.90;99.90
2158;DHT22;41972;48.774;9.282;2022-07-29T01:53:30;16.80;99.90
2158;DHT22;41972;48.774;9.282;2022-07-29T01:55:57;16.80;99.90
2158;DHT22;41972;48.774;9.282;2022-07-29T01:58:27;17.00;99.90
2158;DHT22;41972;48.774;9.282;2022-07-29T02:00:53;16.80;99.90
2158;DHT22;41972;48.774;9.282;2022-07-29T02:03:21;16.80;99.90
2158;DHT22;41972;48.774;9.282;2022-07-29T02:05:48;16.80;99.90
2158;DHT22;41972;48.774;9.282;2022-07-29T02:08:16;16.70;99.90
2158;DHT22;41972;48.774;9.282;2022-07-29T02:10:46;16.60;99.90
2158;DHT22;41972;48.774;9.282;2022-07-29T02:13:13;16.50;99.90
2158;DHT22;41972;48.774;9.282;2022-07-29T02:15:42;16.50;99.90
2158;DHT22;41972;48.774;9.282;2022-07-29T02:18:11;16.60;99.90
2158;DHT22;41972;48.774;9.282;2022-07-29T02:20:39;16.50;99.90
2158;DHT22;41972;48.774;9.282;2022-07-29T02:23:06;16.50;99.90
2158;DHT22;41972;48.774;9.282;2022-07-29T02:25:32;16.50;99.90
2158;DHT22;41972;48.774;9.282;2022-07-29T02:27:59;16.40;99.90
2158;DHT22;41972;48.774;9.282;2022-07-29T02:30:26;16.20;99.90
2158;DHT22;41972;48.774;9.282;2022-07-29T02:32:53;16.30;99.90
2158;DHT22;41972;48.774;9.282;2022-07-29T02:35:21;16.30;99.90
2158;DHT22;41972;48.774;9.282;2022-07-29T02:37:47;16.30;99.90
2158;DHT22;41972;48.774;9.282;2022-07-29T02:40:37;16.20;99.90
2158;DHT22;41972;48.774;9.282;2022-07-29T02:43:05;16.10;99.90
2158;DHT22;41972;48.774;9.282;2022-07-29T02:45:32;16.00;99.90
2158;DHT22;41972;48.774;9.282;2022-07-29T02:47:59;16.00;99.90
2158;DHT22;41972;48.774;9.282;2022-07-29T02:50:37;16.00;99.90
2158;DHT22;41972;48.774;9.282;2022-07-29T02:53:17;16.00;99.90
2158;DHT22;41972;48.774;9.282;2022-07-29T02:55:50;15.90;99.90
2158;DHT22;41972;48.774;9.282;2022-07-29T02:58:30;16.00;99.90
2158;DHT22;41972;48.774;9.282;2022-07-29T03:00:59;15.90;99.90
2158;DHT22;41972;48.774;9.282;2022-07-29T03:03:27;16.00;99.90
2158;DHT22;41972;48.774;9.282;2022-07-29T03:05:57;15.90;99.90
2158;DHT22;41972;48.774;9.282;2022-07-29T03:08:25;15.90;99.90
2158;DHT22;41972;48.774;9.282;2022-07-29T03:10:52;16.00;99.90
2158;DHT22;41972;48.774;9.282;2022-07-29T03:13:19;16.00;99.90
2158;DHT22;41972;48.774;9.282;2022-07-29T03:15:45;15.90;99.90
2158;DHT22;41972;48.774;9.282;2022-07-29T03:18:12;16.10;99.90
2158;DHT22;41972;48.774;9.282;2022-07-29T03:20:38;16.00;99.90
2158;DHT22;41972;48.774;9.282;2022-07-29T03:23:04;16.00;99.90
2158;DHT22;41972;48.774;9.282;2022-07-29T03:25:30;16.10;99.90
2158;DHT22;41972;48.774;9.282;2022-07-29T03:27:56;16.00;99.90
2158;DHT22;41972;48.774;9.282;2022-07-29T03:30:22;15.90;99.90
2158;DHT22;41972;48.774;9.282;2022-07-29T03:32:48;15.80;99.90
2158;DHT22;41972;48.774;9.282;2022-07-29T03:35:14;15.90;99.90
2158;DHT22;41972;48.774;9.282;2022-07-29T03:37:42;15.80;99.90
2158;DHT22;41972;48.774;9.282;2022-07-29T03:40:08;15.90;99.90
2158;DHT22;41972;48.774;9.282;2022-07-29T03:42:38;15.90;99.90
2158;DHT22;41972;48.774;9.282;2022-07-29T03:45:10;16.00;99.90
2158;DHT22;41972;48.774;9.282;2022-07-29T03:47:40;15.90;99.90
2158;DHT22;41972;48.774;9.282;2022-07-29T03:50:11;15.80;99.90
2158;DHT22;41972;48.774;9.282;2022-07-29T03:52:38;15.90;99.90
2158;DHT22;41972;48.774;9.282;2022-07-29T03:55:04;15.80;99.90
2158;DHT22;41972;48.774;9.282;2022-07-29T03:57:30;16.00;99.90
2158;DHT22;41972;48.774;9.282;2022-07-29T03:59:57;16.10;99.90
2158;DHT22;41972;48.774;9.282;2022-07-29T04:02:23;16.20;99.90
2158;DHT22;41972;48.774;9.282;2022-07-29T04:04:50;16.00;99.90
2158;DHT22;41972;48.774;9.282;2022-07-29T04:07:16;15.80;99.90
2158;DHT22;41972;48.774;9.282;2022-07-29T04:09:42;15.90;99.90
2158;DHT22;41972;48.774;9.282;2022-07-29T04:12:08;15.90;99.90
2158;DHT22;41972;48.774;9.282;2022-07-29T04:14:34;16.00;99.90
2158;DHT22;41972;48.774;9.282;2022-07-29T04:17:00;16.10;99.90
2158;DHT22;41972;48.774;9.282;2022-07-29T04:19:26;16.00;99.90
2158;DHT22;41972;48.774;9.282;2022-07-29T04:21:52;16.20;99.90
2158;DHT22;41972;48.774;9.282;2022-07-29T04:24:17;16.40;99.90
2158;DHT22;41972;48.774;9.282;2022-07-29T04:26:44;16.50;99.90
2158;DHT22;41972;48.774;9.282;2022-07-29T04:29:10;16.40;99.90
2158;DHT22;41972;48.774;9.282;2022-07-29T04:31:37;16.60;99.90
2158;DHT22;41972;48.774;9.282;2022-07-29T04:34:03;16.40;99.90
2158;DHT22;41972;48.774;9.282;2022-07-29T04:36:28;16.50;99.90
2158;DHT22;41972;48.774;9.282;2022-07-29T04:38:54;16.60;99.90
2158;DHT22;41972;48.774;9.282;2022-07-29T04:41:20;16.90;99.90
2158;DHT22;41972;48.774;9.282;2022-07-29T04:43:46;16.80;99.90
2158;DHT22;41972;48.774;9.282;2022-07-29T04:46:11;17.20;99.90
2158;DHT22;41972;48.774;9.282;2022-07-29T04:48:37;17.60;99.90
2158;DHT22;41972;48.774;9.282;2022-07-29T04:51:02;18.40;99.90
2158;DHT22;41972;48.774;9.282;2022-07-29T04:53:28;19.10;99.90
2158;DHT22;41972;48.774;9.282;2022-07-29T04:55:54;19.90;99.90
2158;DHT22;41972;48.774;9.282;2022-07-29T04:58:19;19.50;99.90
2158;DHT22;41972;48.774;9.282;2022-07-29T05:00:45;19.80;99.90
2158;DHT22;41972;48.774;9.282;2022-07-29T05:03:11;19.70;99.90
2158;DHT22;41972;48.774;9.282;2022-07-29T05:05:36;20.50;99.90
2158;DHT22;41972;48.774;9.282;2022-07-29T05:08:02;21.20;99.90
2158;DHT22;41972;48.774;9.282;2022-07-29T05:10:28;21.20;99.90
2158;DHT22;41972;48.774;9.282;2022-07-29T05:12:54;21.40;99.90
2158;DHT22;41972;48.774;9.282;2022-07-29T05:15:19;22.80;99.90
2158;DHT22;41972;48.774;9.282;2022-07-29T05:17:45;22.80;99.90
2158;DHT22;41972;48.774;9.282;2022-07-29T05:20:10;23.30;99.90
2158;DHT22;41972;48.774;9.282;2022-07-29T05:22:36;22.60;99.90
2158;DHT22;41972;48.774;9.282;2022-07-29T05:25:02;23.10;99.90
2158;DHT22;41972;48.774;9.282;2022-07-29T05:27:28;24.90;99.90
2158;DHT22;41972;48.774;9.282;2022-07-29T05:29:53;24.20;99.90
2158;DHT22;41972;48.774;9.282;2022-07-29T05:32:19;23.20;99.90
2158;DHT22;41972;48.774;9.282;2022-07-29T05:34:44;23.70;99.90
2158;DHT22;41972;48.774;9.282;2022-07-29T05:37:10;23.20;99.90
2158;DHT22;41972;48.774;9.282;2022-07-29T05:39:36;23.20;99.90
2158;DHT22;41972;48.774;9.282;2022-07-29T05:42:01;24.00;99.90
2158;DHT22;41972;48.774;9.282;2022-07-29T05:44:27;24.30;99.90
2158;DHT22;41972;48.774;9.282;2022-07-29T05:46:53;24.10;99.90
2158;DHT22;41972;48.774;9.282;2022-07-29T05:49:18;23.40;99.90
2158;DHT22;41972;48.774;9.282;2022-07-29T05:51:44;23.10;99.90
2158;DHT22;41972;48.774;9.282;2022-07-29T05:54:09;22.50;99.90
2158;DHT22;41972;48.774;9.282;2022-07-29T05:56:36;22.50;99.90
2158;DHT22;41972;48.774;9.282;2022-07-29T05:59:02;22.10;99.90
2158;DHT22;41972;48.774;9.282;2022-07-29T06:01:28;22.20;99.90
2158;DHT22;41972;48.774;9.282;2022-07-29T06:03:53;21.30;99.90
2158;DHT22;41972;48.774;9.282;2022-07-29T06:06:19;20.80;99.90
2158;DHT22;41972;48.774;9.282;2022-07-29T06:08:45;21.10;99.90
2158;DHT22;41972;48.774;9.282;2022-07-29T06:11:10;21.70;99.90
2158;DHT22;41972;48.774;9.282;2022-07-29T06:13:36;22.30;99.90
2158;DHT22;41972;48.774;9.282;2022-07-29T06:16:01;22.30;99.90
2158;DHT22;41972;48.774;9.282;2022-07-29T06:18:27;22.20;99.90
2158;DHT22;41972;48.774;9.282;2022-07-29T06:20:53;22.90;99.90
2158;DHT22;41972;48.774;9.282;2022-07-29T06:23:20;23.70;99.90
2158;DHT22;41972;48.774;9.282;2022-07-29T06:25:45;24.10;99.90
2158;DHT22;41972;48.774;9.282;2022-07-29T06:28:11;23.30;99.90
2158;DHT22;41972;48.774;9.282;2022-07-29T06:30:37;23.80;99.90
2158;DHT22;41972;48.774;9.282;2022-07-29T06:33:03;24.10;99.90
2158;DHT22;41972;48.774;9.282;2022-07-29T06:35:29;24.50;99.90
2158;DHT22;41972;48.774;9.282;2022-07-29T06:37:54;24.50;99.90
2158;DHT22;41972;48.774;9.282;2022-07-29T06:40:20;25.20;99.90
2158;DHT22;41972;48.774;9.282;2022-07-29T06:43:04;25.60;99.90
2158;DHT22;41972;48.774;9.282;2022-07-29T06:45:33;24.90;99.90
2158;DHT22;41972;48.774;9.282;2022-07-29T06:47:58;24.50;99.90
2158;DHT22;41972;48.774;9.282;2022-07-29T06:50:24;25.70;99.90
2158;DHT22;41972;48.774;9.282;2022-07-29T06:52:50;26.40;99.90
2158;DHT22;41972;48.774;9.282;2022-07-29T06:55:15;25.80;99.90
2158;DHT22;41972;48.774;9.282;2022-07-29T06:57:41;27.20;99.90
2158;DHT22;41972;48.774;9.282;2022-07-29T07:00:07;26.80;99.90
2158;DHT22;41972;48.774;9.282;2022-07-29T07:02:33;27.10;99.90
2158;DHT22;41972;48.774;9.282;2022-07-29T07:04:58;26.40;99.90
2158;DHT22;41972;48.774;9.282;2022-07-29T07:07:24;25.50;99.90
2158;DHT22;41972;48.774;9.282;2022-07-29T07:09:50;25.30;99.90
2158;DHT22;41972;48.774;9.282;2022-07-29T07:12:16;26.30;99.90
2158;DHT22;41972;48.774;9.282;2022-07-29T07:14:41;24.20;99.90
2158;DHT22;41972;48.774;9.282;2022-07-29T07:17:07;25.20;99.90
2158;DHT22;41972;48.774;9.282;2022-07-29T07:19:33;25.50;99.90
2158;DHT22;41972;48.774;9.282;2022-07-29T07:21:58;26.10;99.90
2158;DHT22;41972;48.774;9.282;2022-07-29T07:24:24;27.00;99.90
2158;DHT22;41972;48.774;9.282;2022-07-29T07:26:49;26.60;99.90
2158;DHT22;41972;48.774;9.282;2022-07-29T07:29:15;27.90;99.90
2158;DHT22;41972;48.774;9.282;2022-07-29T07:31:41;27.50;99.90
2158;DHT22;41972;48.774;9.282;2022-07-29T07:34:06;26.90;99.90
2158;DHT22;41972;48.774;9.282;2022-07-29T07:36:32;25.90;99.90
2158;DHT22;41972;48.774;9.282;2022-07-29T07:38:57;25.70;99.90
2158;DHT22;41972;48.774;9.282;2022-07-29T07:41:23;23.70;99.90
2158;DHT22;41972;48.774;9.282;2022-07-29T07:43:48;25.70;99.90
2158;DHT22;41972;48.774;9.282;2022-07-29T07:46:14;25.80;99.90
2158;DHT22;41972;48.774;9.282;2022-07-29T07:48:40;26.80;99.90
2158;DHT22;41972;48.774;9.282;2022-07-29T07:51:06;25.20;99.90
2158;DHT22;41972;48.774;9.282;2022-07-29T07:53:32;24.50;99.90
2158;DHT22;41972;48.774;9.282;2022-07-29T07:55:58;24.90;99.90
2158;DHT22;41972;48.774;9.282;2022-07-29T07:58:24;26.40;99.90
2158;DHT22;41972;48.774;9.282;2022-07-29T08:00:49;27.40;99.90
2158;DHT22;41972;48.774;9.282;2022-07-29T08:03:15;27.80;99.90
2158;DHT22;41972;48.774;9.282;2022-07-29T08:05:41;26.80;99.90
2158;DHT22;41972;48.774;9.282;2022-07-29T08:08:07;26.10;99.90
2158;DHT22;41972;48.774;9.282;2022-07-29T08:10:32;24.90;99.90
2158;DHT22;41972;48.774;9.282;2022-07-29T08:13:18;25.60;99.90
2158;DHT22;41972;48.774;9.282;2022-07-29T08:15:43;24.50;99.90
2158;DHT22;41972;48.774;9.282;2022-07-29T08:18:11;25.20;99.90
2158;DHT22;41972;48.774;9.282;2022-07-29T08:20:37;25.50;99.90
2158;DHT22;41972;48.774;9.282;2022-07-29T08:23:05;27.30;99.90
2158;DHT22;41972;48.774;9.282;2022-07-29T08:25:32;27.50;99.90
2158;DHT22;41972;48.774;9.282;2022-07-29T08:27:58;27.60;99.90
2158;DHT22;41972;48.774;9.282;2022-07-29T08:30:24;27.30;99.90
2158;DHT22;41972;48.774;9.282;2022-07-29T08:32:50;28.80;99.90
2158;DHT22;41972;48.774;9.282;2022-07-29T08:35:18;30.30;95.10
2158;DHT22;41972;48.774;9.282;2022-07-29T08:37:44;32.10;88.90
2158;DHT22;41972;48.774;9.282;2022-07-29T08:40:10;31.10;86.10
2158;DHT22;41972;48.774;9.282;2022-07-29T08:42:36;31.70;76.80
2158;DHT22;41972;48.774;9.282;2022-07-29T08:45:02;33.20;62.40
2158;DHT22;41972;48.774;9.282;2022-07-29T08:47:28;31.60;78.20
2158;DHT22;41972;48.774;9.282;2022-07-29T08:49:55;33.80;59.60
2158;DHT22;41972;48.774;9.282;2022-07-29T08:52:21;33.30;51.20
2158;DHT22;41972;48.774;9.282;2022-07-29T08:54:48;32.20;56.20
2158;DHT22;41972;48.774;9.282;2022-07-29T08:57:15;32.40;53.80
2158;DHT22;41972;48.774;9.282;2022-07-29T08:59:42;33.30;42.80
2158;DHT22;41972;48.774;9.282;2022-07-29T09:02:18;33.10;45.30
2158;DHT22;41972;48.774;9.282;2022-07-29T09:04:44;32.90;31.70
2158;DHT22;41972;48.774;9.282;2022-07-29T09:07:14;31.50;43.60
2158;DHT22;41972;48.774;9.282;2022-07-29T09:09:41;32.70;33.70
2158;DHT22;41972;48.774;9.282;2022-07-29T09:12:08;34.40;28.30
2158;DHT22;41972;48.774;9.282;2022-07-29T09:14:34;33.30;28.40
2158;DHT22;41972;48.774;9.282;2022-07-29T09:17:00;32.70;31.90
2158;DHT22;41972;48.774;9.282;2022-07-29T09:19:36;33.80;30.60
2158;DHT22;41972;48.774;9.282;2022-07-29T09:22:06;37.10;15.90
2158;DHT22;41972;48.774;9.282;2022-07-29T09:24:42;36.10;16.00
2158;DHT22;41972;48.774;9.282;2022-07-29T09:29:43;34.20;16.30
2158;DHT22;41972;48.774;9.282;2022-07-29T09:32:10;34.70;14.40
2158;DHT22;41972;48.774;9.282;2022-07-29T09:34:36;37.30;5.10
2158;DHT22;41972;48.774;9.282;2022-07-29T09:37:02;33.90;8.80
2158;DHT22;41972;48.774;9.282;2022-07-29T09:39:38;33.70;9.70
2158;DHT22;41972;48.774;9.282;2022-07-29T09:42:11;33.90;8.10
2158;DHT22;41972;48.774;9.282;2022-07-29T09:44:48;33.70;3.60
2158;DHT22;41972;48.774;9.282;2022-07-29T09:47:15;30.70;11.50
2158;DHT22;41972;48.774;9.282;2022-07-29T09:49:59;32.80;13.50
2158;DHT22;41972;48.774;9.282;2022-07-29T09:52:28;33.40;13.30
2158;DHT22;41972;48.774;9.282;2022-07-29T09:55:05;33.30;11.50
2158;DHT22;41972;48.774;9.282;2022-07-29T09:57:31;34.20;7.50
2158;DHT22;41972;48.774;9.282;2022-07-29T10:02:32;35.50;3.50
2158;DHT22;41972;48.774;9.282;2022-07-29T10:04:58;36.10;1.60
2158;DHT22;41972;48.774;9.282;2022-07-29T10:07:24;35.80;1.00
2158;DHT22;41972;48.774;9.282;2022-07-29T10:09:57;35.40;1.00
2158;DHT22;41972;48.774;9.282;2022-07-29T10:12:24;34.00;1.20
2158;DHT22;41972;48.774;9.282;2022-07-29T10:14:50;32.30;1.70
2158;DHT22;41972;48.774;9.282;2022-07-29T10:17:16;33.80;3.00
2158;DHT22;41972;48.774;9.282;2022-07-29T10:19:43;34.50;2.80
2158;DHT22;41972;48.774;9.282;2022-07-29T10:22:10;32.40;5.60
2158;DHT22;41972;48.774;9.282;2022-07-29T10:24:37;33.00;6.20
2158;DHT22;41972;48.774;9.282;2022-07-29T10:27:06;34.00;2.30
2158;DHT22;41972;48.774;9.282;2022-07-29T10:29:32;36.00;2.50
2158;DHT22;41972;48.774;9.282;2022-07-29T10:34:55;37.50;1.00
2158;DHT22;41972;48.774;9.282;2022-07-29T10:37:52;36.60;1.00
2158;DHT22;41972;48.774;9.282;2022-07-29T10:43:21;31.30;1.00
2158;DHT22;41972;48.774;9.282;2022-07-29T10:45:48;30.50;2.80
2158;DHT22;41972;48.774;9.282;2022-07-29T10:48:15;29.00;6.50
2158;DHT22;41972;48.774;9.282;2022-07-29T10:53:19;28.00;14.60
2158;DHT22;41972;48.774;9.282;2022-07-29T10:55:46;28.10;18.60
2158;DHT22;41972;48.774;9.282;2022-07-29T10:58:21;28.00;18.10
2158;DHT22;41972;48.774;9.282;2022-07-29T11:00:49;27.70;18.10
2158;DHT22;41972;48.774;9.282;2022-07-29T11:06:09;26.80;29.30
2158;DHT22;41972;48.774;9.282;2022-07-29T11:08:35;25.90;63.40
2158;DHT22;41972;48.774;9.282;2022-07-29T11:11:36;25.10;99.90
2158;DHT22;41972;48.774;9.282;2022-07-29T11:14:02;24.50;99.90
2158;DHT22;41972;48.774;9.282;2022-07-29T11:17:00;24.30;99.90
2158;DHT22;41972;48.774;9.282;2022-07-29T11:19:28;23.70;99.90
2158;DHT22;41972;48.774;9.282;2022-07-29T11:21:54;23.20;99.90
2158;DHT22;41972;48.774;9.282;2022-07-29T11:24:22;23.00;99.90
2158;DHT22;41972;48.774;9.282;2022-07-29T11:27:10;23.10;99.90
2158;DHT22;41972;48.774;9.282;2022-07-29T11:30:00;22.30;99.90
2158;DHT22;41972;48.774;9.282;2022-07-29T11:32:49;20.70;99.90
2158;DHT22;41972;48.774;9.282;2022-07-29T11:35:20;20.00;99.90
2158;DHT22;41972;48.774;9.282;2022-07-29T11:41:25;18.50;99.90
2158;DHT22;41972;48.774;9.282;2022-07-29T11:43:55;18.20;99.90
2158;DHT22;41972;48.774;9.282;2022-07-29T11:46:45;18.20;99.90
2158;DHT22;41972;48.774;9.282;2022-07-29T11:49:12;18.10;99.90
2158;DHT22;41972;48.774;9.282;2022-07-29T11:51:39;17.70;99.90
2158;DHT22;41972;48.774;9.282;2022-07-29T11:54:05;17.70;99.90
2158;DHT22;41972;48.774;9.282;2022-07-29T11:56:32;17.90;99.90
2158;DHT22;41972;48.774;9.282;2022-07-29T11:59:03;18.20;99.90
2158;DHT22;41972;48.774;9.282;2022-07-29T12:01:29;17.80;99.90
2158;DHT22;41972;48.774;9.282;2022-07-29T12:04:05;18.00;99.90
2158;DHT22;41972;48.774;9.282;2022-07-29T12:06:32;18.20;99.90
2158;DHT22;41972;48.774;9.282;2022-07-29T12:08:58;18.50;99.90
2158;DHT22;41972;48.774;9.282;2022-07-29T12:11:23;18.30;99.90
2158;DHT22;41972;48.774;9.282;2022-07-29T12:13:50;18.30;99.90
2158;DHT22;41972;48.774;9.282;2022-07-29T12:16:16;18.40;99.90
2158;DHT22;41972;48.774;9.282;2022-07-29T12:18:42;18.30;99.90
2158;DHT22;41972;48.774;9.282;2022-07-29T12:21:07;18.60;99.90
2158;DHT22;41972;48.774;9.282;2022-07-29T12:23:34;18.60;99.90
2158;DHT22;41972;48.774;9.282;2022-07-29T12:25:59;18.70;99.90
2158;DHT22;41972;48.774;9.282;2022-07-29T12:28:25;18.90;99.90
2158;DHT22;41972;48.774;9.282;2022-07-29T12:30:51;18.80;99.90
2158;DHT22;41972;48.774;9.282;2022-07-29T12:33:25;18.70;99.90
2158;DHT22;41972;48.774;9.282;2022-07-29T12:36:02;18.90;99.90
2158;DHT22;41972;48.774;9.282;2022-07-29T12:38:29;19.10;99.90
2158;DHT22;41972;48.774;9.282;2022-07-29T12:40:55;19.30;99.90
2158;DHT22;41972;48.774;9.282;2022-07-29T12:43:22;19.30;99.90
2158;DHT22;41972;48.774;9.282;2022-07-29T12:45:53;19.70;99.90
2158;DHT22;41972;48.774;9.282;2022-07-29T12:48:39;20.20;99.90
2158;DHT22;41972;48.774;9.282;2022-07-29T12:51:07;20.50;99.90
2158;DHT22;41972;48.774;9.282;2022-07-29T12:53:34;20.80;99.90
2158;DHT22;41972;48.774;9.282;2022-07-29T12:56:00;20.90;99.90
2158;DHT22;41972;48.774;9.282;2022-07-29T12:58:41;21.00;99.90
2158;DHT22;41972;48.774;9.282;2022-07-29T13:01:17;21.20;99.90
2158;DHT22;41972;48.774;9.282;2022-07-29T13:03:53;21.10;99.90
2158;DHT22;41972;48.774;9.282;2022-07-29T13:09:10;20.90;99.90
2158;DHT22;41972;48.774;9.282;2022-07-29T13:11:40;21.00;99.90
2158;DHT22;41972;48.774;9.282;2022-07-29T13:14:08;21.00;99.90
2158;DHT22;41972;48.774;9.282;2022-07-29T13:16:35;21.20;99.90
2158;DHT22;41972;48.774;9.282;2022-07-29T13:19:11;21.30;99.90
2158;DHT22;41972;48.774;9.282;2022-07-29T13:21:38;21.40;99.90
2158;DHT22;41972;48.774;9.282;2022-07-29T13:24:07;21.40;99.90
2158;DHT22;41972;48.774;9.282;2022-07-29T13:26:33;21.10;99.90
2158;DHT22;41972;48.774;9.282;2022-07-29T13:28:59;21.00;99.90
2158;DHT22;41972;48.774;9.282;2022-07-29T13:31:25;20.80;99.90
2158;DHT22;41972;48.774;9.282;2022-07-29T13:33:50;20.40;99.90
2158;DHT22;41972;48.774;9.282;2022-07-29T13:36:16;20.70;99.90
2158;DHT22;41972;48.774;9.282;2022-07-29T13:38:42;20.50;99.90
2158;DHT22;41972;48.774;9.282;2022-07-29T13:41:07;20.00;99.90
2158;DHT22;41972;48.774;9.282;2022-07-29T13:43:33;19.90;99.90
2158;DHT22;41972;48.774;9.282;2022-07-29T13:45:58;19.90;99.90
2158;DHT22;41972;48.774;9.282;2022-07-29T13:48:24;20.20;99.90
2158;DHT22;41972;48.774;9.282;2022-07-29T13:50:50;20.40;99.90
2158;DHT22;41972;48.774;9.282;2022-07-29T13:53:15;20.70;99.90
2158;DHT22;41972;48.774;9.282;2022-07-29T13:55:41;20.40;99.90
2158;DHT22;41972;48.774;9.282;2022-07-29T13:58:07;20.10;99.90
2158;DHT22;41972;48.774;9.282;2022-07-29T14:00:32;19.80;99.90
2158;DHT22;41972;48.774;9.282;2022-07-29T14:02:59;19.80;99.90
2158;DHT22;41972;48.774;9.282;2022-07-29T14:05:25;19.80;99.90
2158;DHT22;41972;48.774;9.282;2022-07-29T14:07:50;19.70;99.90
2158;DHT22;41972;48.774;9.282;2022-07-29T14:10:16;19.70;99.90
2158;DHT22;41972;48.774;9.282;2022-07-29T14:12:41;19.80;99.90
2158;DHT22;41972;48.774;9.282;2022-07-29T14:15:07;20.10;99.90
2158;DHT22;41972;48.774;9.282;2022-07-29T14:17:33;20.50;99.90
2158;DHT22;41972;48.774;9.282;2022-07-29T14:19:59;20.90;99.90
2158;DHT22;41972;48.774;9.282;2022-07-29T14:22:24;21.30;99.90
2158;DHT22;41972;48.774;9.282;2022-07-29T14:24:50;21.70;99.90
2158;DHT22;41972;48.774;9.282;2022-07-29T14:27:16;21.90;99.90
2158;DHT22;41972;48.774;9.282;2022-07-29T14:29:41;22.40;99.90
2158;DHT22;41972;48.774;9.282;2022-07-29T14:32:08;22.90;99.90
2158;DHT22;41972;48.774;9.282;2022-07-29T14:34:36;23.40;99.90
2158;DHT22;41972;48.774;9.282;2022-07-29T14:37:02;23.40;99.90
2158;DHT22;41972;48.774;9.282;2022-07-29T14:39:30;23.10;99.90
2158;DHT22;41972;48.774;9.282;2022-07-29T14:41:56;23.40;99.90
2158;DHT22;41972;48.774;9.282;2022-07-29T14:44:22;22.90;99.90
2158;DHT22;41972;48.774;9.282;2022-07-29T14:46:47;22.90;99.90
2158;DHT22;41972;48.774;9.282;2022-07-29T14:49:13;22.40;99.90
2158;DHT22;41972;48.774;9.282;2022-07-29T14:51:38;22.20;99.90
2158;DHT22;41972;48.774;9.282;2022-07-29T14:54:04;22.10;99.90
2158;DHT22;41972;48.774;9.282;2022-07-29T14:56:29;22.10;99.90
2158;DHT22;41972;48.774;9.282;2022-07-29T14:58:56;22.50;99.90
2158;DHT22;41972;48.774;9.282;2022-07-29T15:01:22;22.80;99.90
2158;DHT22;41972;48.774;9.282;2022-07-29T15:03:48;23.10;99.90
2158;DHT22;41972;48.774;9.282;2022-07-29T15:06:14;23.10;99.90
2158;DHT22;41972;48.774;9.282;2022-07-29T15:08:39;22.70;99.90
2158;DHT22;41972;48.774;9.282;2022-07-29T15:11:05;22.40;99.90
2158;DHT22;41972;48.774;9.282;2022-07-29T15:13:30;22.60;99.90
2158;DHT22;41972;48.774;9.282;2022-07-29T15:15:56;22.80;99.90
2158;DHT22;41972;48.774;9.282;2022-07-29T15:18:21;22.30;99.90
2158;DHT22;41972;48.774;9.282;2022-07-29T15:20:47;21.90;99.90
2158;DHT22;41972;48.774;9.282;2022-07-29T15:23:12;22.10;99.90
2158;DHT22;41972;48.774;9.282;2022-07-29T15:25:39;22.30;99.90
2158;DHT22;41972;48.774;9.282;2022-07-29T15:28:05;22.20;99.90
2158;DHT22;41972;48.774;9.282;2022-07-29T15:30:34;22.10;99.90
2158;DHT22;41972;48.774;9.282;2022-07-29T15:33:05;22.40;99.90
2158;DHT22;41972;48.774;9.282;2022-07-29T15:35:30;22.70;99.90
2158;DHT22;41972;48.774;9.282;2022-07-29T15:37:56;22.80;99.90
2158;DHT22;41972;48.774;9.282;2022-07-29T15:40:21;22.70;99.90
2158;DHT22;41972;48.774;9.282;2022-07-29T15:42:47;22.90;99.90
2158;DHT22;41972;48.774;9.282;2022-07-29T15:45:12;23.00;99.90
2158;DHT22;41972;48.774;9.282;2022-07-29T15:47:38;23.20;99.90
2158;DHT22;41972;48.774;9.282;2022-07-29T15:50:04;23.20;99.90
2158;DHT22;41972;48.774;9.282;2022-07-29T15:52:31;22.90;99.90
2158;DHT22;41972;48.774;9.282;2022-07-29T15:54:57;23.30;99.90
2158;DHT22;41972;48.774;9.282;2022-07-29T15:57:23;23.60;99.90
2158;DHT22;41972;48.774;9.282;2022-07-29T15:59:48;23.80;99.90
2158;DHT22;41972;48.774;9.282;2022-07-29T16:02:14;23.90;99.90
2158;DHT22;41972;48.774;9.282;2022-07-29T16:04:39;23.70;99.90
2158;DHT22;41972;48.774;9.282;2022-07-29T16:07:05;23.40;99.90
2158;DHT22;41972;48.774;9.282;2022-07-29T16:09:31;22.60;99.90
2158;DHT22;41972;48.774;9.282;2022-07-29T16:11:57;22.30;99.90
2158;DHT22;41972;48.774;9.282;2022-07-29T16:14:23;22.10;99.90
2158;DHT22;41972;48.774;9.282;2022-07-29T16:16:48;22.10;99.90
2158;DHT22;41972;48.774;9.282;2022-07-29T16:19:14;22.30;99.90